sensor_id;sensor_type;location;lat;lon;timestamp;pressure;altitude;pressure_sealevel;temperature;humidity
64230;BME280;50547;49.498;0.092;2023-02-01T00:01:31;1025.62;;;9.37;79.25
64230;BME280;50547;49.498;0.092;2023-02-01T00:04:00;1025.66;;;9.37;78.34
64230;BME280;50547;49.498;0.092;2023-02-01T00:06:29;1025.70;;;9.41;77.78
64230;BME280;50547;49.498;0.092;2023-02-01T00:08:58;1025.64;;;9.41;77.55
64230;BME280;50547;49.498;0.092;2023-02-01T00:11:28;1025.66;;;9.42;77.48
64230;BME280;50547;49.498;0.092;2023-02-01T00:13:57;1025.64;;;9.44;77.41
64230;BME280;50547;49.498;0.092;2023-02-01T00:16:28;1025.66;;;9.46;77.08
64230;BME280;50547;49.498;0.092;2023-02-01T00:19:00;1025.68;;;9.49;76.44
64230;BME280;50547;49.498;0.092;2023-02-01T00:21:29;1025.66;;;9.52;76.17
64230;BME280;50547;49.498;0.092;2023-02-01T00:23:59;1025.70;;;9.59;76.34
64230;BME280;50547;49.498;0.092;2023-02-01T00:26:32;1025.70;;;9.60;77.06
64230;BME280;50547;49.498;0.092;2023-02-01T00:29:04;1025.70;;;9.60;77.70
64230;BME280;50547;49.498;0.092;2023-02-01T00:31:33;1025.68;;;9.57;78.20
64230;BME280;50547;49.498;0.092;2023-02-01T00:34:03;1025.76;;;9.43;79.28
64230;BME280;50547;49.498;0.092;2023-02-01T00:36:33;1025.76;;;9.42;78.98
64230;BME280;50547;49.498;0.092;2023-02-01T00:39:02;1025.72;;;9.45;78.41
64230;BME280;50547;49.498;0.092;2023-02-01T00:41:31;1025.62;;;9.45;78.49
64230;BME280;50547;49.498;0.092;2023-02-01T00:44:01;1025.68;;;9.39;79.20
64230;BME280;50547;49.498;0.092;2023-02-01T00:46:30;1025.70;;;9.39;79.16
64230;BME280;50547;49.498;0.092;2023-02-01T00:48:59;1025.68;;;9.41;79.14
64230;BME280;50547;49.498;0.092;2023-02-01T00:51:29;1025.70;;;9.39;79.22
64230;BME280;50547;49.498;0.092;2023-02-01T00:53:58;1025.76;;;9.44;79.08
64230;BME280;50547;49.498;0.092;2023-02-01T00:56:27;1025.77;;;9.42;79.37
64230;BME280;50547;49.498;0.092;2023-02-01T00:58:56;1025.81;;;9.44;79.82
64230;BME280;50547;49.498;0.092;2023-02-01T01:01:26;1025.83;;;9.51;79.91
64230;BME280;50547;49.498;0.092;2023-02-01T01:03:57;1025.89;;;9.40;80.73
64230;BME280;50547;49.498;0.092;2023-02-01T01:06:29;1025.79;;;9.23;80.46
64230;BME280;50547;49.498;0.092;2023-02-01T01:09:00;1025.87;;;9.26;78.60
64230;BME280;50547;49.498;0.092;2023-02-01T01:11:31;1025.81;;;9.34;77.62
64230;BME280;50547;49.498;0.092;2023-02-01T01:14:01;1025.91;;;9.38;76.55
64230;BME280;50547;49.498;0.092;2023-02-01T01:16:31;1025.89;;;9.40;76.36
64230;BME280;50547;49.498;0.092;2023-02-01T01:19:00;1025.81;;;9.45;76.51
64230;BME280;50547;49.498;0.092;2023-02-01T01:21:30;1025.74;;;9.47;77.17
64230;BME280;50547;49.498;0.092;2023-02-01T01:23:59;1025.66;;;9.51;78.27
64230;BME280;50547;49.498;0.092;2023-02-01T01:26:29;1025.56;;;9.43;78.59
64230;BME280;50547;49.498;0.092;2023-02-01T01:28:59;1025.70;;;9.41;78.81
64230;BME280;50547;49.498;0.092;2023-02-01T01:31:29;1025.74;;;9.38;79.31
64230;BME280;50547;49.498;0.092;2023-02-01T01:33:59;1025.85;;;9.43;79.67
64230;BME280;50547;49.498;0.092;2023-02-01T01:36:29;1025.85;;;9.39;79.84
64230;BME280;50547;49.498;0.092;2023-02-01T01:38:58;1025.74;;;9.34;79.58
64230;BME280;50547;49.498;0.092;2023-02-01T01:41:30;1025.81;;;9.35;79.62
64230;BME280;50547;49.498;0.092;2023-02-01T01:44:01;1025.70;;;9.40;79.62
64230;BME280;50547;49.498;0.092;2023-02-01T01:46:32;1025.70;;;9.39;79.85
64230;BME280;50547;49.498;0.092;2023-02-01T01:49:06;1025.74;;;9.25;79.77
64230;BME280;50547;49.498;0.092;2023-02-01T01:51:38;1025.79;;;9.25;79.01
64230;BME280;50547;49.498;0.092;2023-02-01T01:54:11;1025.83;;;9.26;77.92
64230;BME280;50547;49.498;0.092;2023-02-01T01:56:43;1025.79;;;9.31;77.29
64230;BME280;50547;49.498;0.092;2023-02-01T01:59:13;1025.83;;;9.35;76.93
64230;BME280;50547;49.498;0.092;2023-02-01T02:01:43;1025.83;;;9.32;77.58
64230;BME280;50547;49.498;0.092;2023-02-01T02:04:13;1025.91;;;9.31;77.95
64230;BME280;50547;49.498;0.092;2023-02-01T02:06:45;1025.93;;;9.31;77.55
64230;BME280;50547;49.498;0.092;2023-02-01T02:09:16;1025.83;;;9.31;77.00
64230;BME280;50547;49.498;0.092;2023-02-01T02:11:45;1025.79;;;9.38;76.87
64230;BME280;50547;49.498;0.092;2023-02-01T02:14:17;1025.68;;;9.41;77.70
64230;BME280;50547;49.498;0.092;2023-02-01T02:16:58;1025.76;;;9.37;77.73
64230;BME280;50547;49.498;0.092;2023-02-01T02:25:00;1025.76;;;9.35;74.77
64230;BME280;50547;49.498;0.092;2023-02-01T02:27:43;1025.66;;;9.30;72.94
64230;BME280;50547;49.498;0.092;2023-02-01T02:31:11;1025.77;;;9.37;71.61
64230;BME280;50547;49.498;0.092;2023-02-01T02:33:54;1025.72;;;9.39;71.67
64230;BME280;50547;49.498;0.092;2023-02-01T02:36:35;1025.72;;;9.40;71.24
64230;BME280;50547;49.498;0.092;2023-02-01T02:39:13;1025.74;;;9.41;71.07
64230;BME280;50547;49.498;0.092;2023-02-01T02:41:51;1025.70;;;9.43;71.29
64230;BME280;50547;49.498;0.092;2023-02-01T02:44:29;1025.72;;;9.40;72.10
64230;BME280;50547;49.498;0.092;2023-02-01T02:47:07;1025.72;;;9.43;72.94
64230;BME280;50547;49.498;0.092;2023-02-01T02:49:45;1025.66;;;9.39;73.41
64230;BME280;50547;49.498;0.092;2023-02-01T02:52:19;1025.66;;;9.35;73.23
64230;BME280;50547;49.498;0.092;2023-02-01T02:54:50;1025.68;;;9.35;72.15
64230;BME280;50547;49.498;0.092;2023-02-01T02:57:23;1025.81;;;9.41;72.01
64230;BME280;50547;49.498;0.092;2023-02-01T02:59:55;1025.85;;;9.44;72.65
64230;BME280;50547;49.498;0.092;2023-02-01T03:02:27;1025.87;;;9.47;72.86
64230;BME280;50547;49.498;0.092;2023-02-01T03:04:56;1025.83;;;9.52;73.60
64230;BME280;50547;49.498;0.092;2023-02-01T03:08:02;1025.83;;;9.51;74.50
64230;BME280;50547;49.498;0.092;2023-02-01T03:11:05;1025.66;;;9.60;75.99
64230;BME280;50547;49.498;0.092;2023-02-01T03:13:38;1025.62;;;9.58;77.69
64230;BME280;50547;49.498;0.092;2023-02-01T03:16:14;1025.60;;;9.40;79.12
64230;BME280;50547;49.498;0.092;2023-02-01T03:18:50;1025.48;;;9.33;79.53
64230;BME280;50547;49.498;0.092;2023-02-01T03:21:24;1025.52;;;9.29;79.45
64230;BME280;50547;49.498;0.092;2023-02-01T03:23:56;1025.54;;;9.18;79.71
64230;BME280;50547;49.498;0.092;2023-02-01T03:26:29;1025.58;;;9.20;79.03
64230;BME280;50547;49.498;0.092;2023-02-01T03:29:03;1025.56;;;9.25;78.26
64230;BME280;50547;49.498;0.092;2023-02-01T03:31:34;1025.58;;;9.28;78.07
64230;BME280;50547;49.498;0.092;2023-02-01T03:34:04;1025.56;;;9.30;78.51
64230;BME280;50547;49.498;0.092;2023-02-01T03:36:37;1025.62;;;9.35;79.02
64230;BME280;50547;49.498;0.092;2023-02-01T03:39:13;1025.48;;;9.25;80.20
64230;BME280;50547;49.498;0.092;2023-02-01T03:41:47;1025.48;;;9.28;80.27
64230;BME280;50547;49.498;0.092;2023-02-01T03:44:22;1025.54;;;9.23;80.73
64230;BME280;50547;49.498;0.092;2023-02-01T03:46:54;1025.60;;;9.18;81.08
64230;BME280;50547;49.498;0.092;2023-02-01T03:49:27;1025.56;;;9.31;80.80
64230;BME280;50547;49.498;0.092;2023-02-01T03:51:58;1025.46;;;9.25;82.19
64230;BME280;50547;49.498;0.092;2023-02-01T03:54:28;1025.58;;;9.19;83.07
64230;BME280;50547;49.498;0.092;2023-02-01T03:57:02;1025.58;;;9.06;84.71
64230;BME280;50547;49.498;0.092;2023-02-01T03:59:33;1025.56;;;8.99;84.95
64230;BME280;50547;49.498;0.092;2023-02-01T04:02:02;1025.64;;;9.02;84.38
64230;BME280;50547;49.498;0.092;2023-02-01T04:04:31;1025.58;;;8.92;84.40
64230;BME280;50547;49.498;0.092;2023-02-01T04:07:02;1025.64;;;8.94;83.62
64230;BME280;50547;49.498;0.092;2023-02-01T04:09:31;1025.66;;;8.96;83.39
64230;BME280;50547;49.498;0.092;2023-02-01T04:12:00;1025.60;;;8.89;83.31
64230;BME280;50547;49.498;0.092;2023-02-01T04:14:29;1025.52;;;8.91;83.17
64230;BME280;50547;49.498;0.092;2023-02-01T04:16:58;1025.62;;;8.91;83.30
64230;BME280;50547;49.498;0.092;2023-02-01T04:19:27;1025.62;;;8.92;83.84
64230;BME280;50547;49.498;0.092;2023-02-01T04:21:56;1025.70;;;8.94;84.40
64230;BME280;50547;49.498;0.092;2023-02-01T04:24:25;1025.66;;;8.80;84.74
64230;BME280;50547;49.498;0.092;2023-02-01T04:26:54;1025.66;;;8.81;83.63
64230;BME280;50547;49.498;0.092;2023-02-01T04:29:23;1025.60;;;8.72;83.16
64230;BME280;50547;49.498;0.092;2023-02-01T04:31:52;1025.77;;;8.72;83.03
64230;BME280;50547;49.498;0.092;2023-02-01T04:34:21;1025.76;;;8.78;82.60
64230;BME280;50547;49.498;0.092;2023-02-01T04:36:50;1025.79;;;8.75;83.12
64230;BME280;50547;49.498;0.092;2023-02-01T04:39:19;1025.79;;;8.74;83.29
64230;BME280;50547;49.498;0.092;2023-02-01T04:41:49;1025.74;;;8.82;83.04
64230;BME280;50547;49.498;0.092;2023-02-01T04:44:18;1025.83;;;8.78;82.78
64230;BME280;50547;49.498;0.092;2023-02-01T04:46:48;1025.87;;;8.84;82.63
64230;BME280;50547;49.498;0.092;2023-02-01T04:49:17;1025.97;;;8.90;83.20
64230;BME280;50547;49.498;0.092;2023-02-01T04:51:47;1025.99;;;8.89;83.40
64230;BME280;50547;49.498;0.092;2023-02-01T04:54:16;1025.89;;;8.84;83.02
64230;BME280;50547;49.498;0.092;2023-02-01T04:56:45;1025.83;;;8.99;82.70
64230;BME280;50547;49.498;0.092;2023-02-01T04:59:14;1025.81;;;8.92;82.79
64230;BME280;50547;49.498;0.092;2023-02-01T05:01:43;1025.87;;;8.87;83.18
64230;BME280;50547;49.498;0.092;2023-02-01T05:04:12;1026.08;;;9.03;82.10
64230;BME280;50547;49.498;0.092;2023-02-01T05:06:41;1025.95;;;9.11;82.11
64230;BME280;50547;49.498;0.092;2023-02-01T05:09:10;1025.97;;;8.98;80.28
64230;BME280;50547;49.498;0.092;2023-02-01T05:11:40;1025.95;;;8.97;79.11
64230;BME280;50547;49.498;0.092;2023-02-01T05:14:09;1025.93;;;9.06;77.56
64230;BME280;50547;49.498;0.092;2023-02-01T05:16:38;1025.87;;;9.16;76.97
64230;BME280;50547;49.498;0.092;2023-02-01T05:19:07;1025.85;;;9.15;76.41
64230;BME280;50547;49.498;0.092;2023-02-01T05:21:36;1025.81;;;9.18;77.51
64230;BME280;50547;49.498;0.092;2023-02-01T05:24:05;1025.83;;;9.30;80.12
64230;BME280;50547;49.498;0.092;2023-02-01T05:26:36;1025.85;;;9.26;81.45
64230;BME280;50547;49.498;0.092;2023-02-01T05:29:07;1025.89;;;9.08;83.03
64230;BME280;50547;49.498;0.092;2023-02-01T05:31:36;1025.83;;;9.11;82.69
64230;BME280;50547;49.498;0.092;2023-02-01T05:34:06;1025.91;;;9.07;82.90
64230;BME280;50547;49.498;0.092;2023-02-01T05:36:35;1025.81;;;8.89;82.04
64230;BME280;50547;49.498;0.092;2023-02-01T05:39:04;1025.77;;;8.82;80.44
64230;BME280;50547;49.498;0.092;2023-02-01T05:41:34;1025.81;;;8.94;79.48
64230;BME280;50547;49.498;0.092;2023-02-01T05:44:04;1025.77;;;9.08;78.61
64230;BME280;50547;49.498;0.092;2023-02-01T05:46:33;1025.79;;;9.11;78.22
64230;BME280;50547;49.498;0.092;2023-02-01T05:49:03;1025.77;;;9.14;78.28
64230;BME280;50547;49.498;0.092;2023-02-01T05:51:32;1025.91;;;9.20;78.42
64230;BME280;50547;49.498;0.092;2023-02-01T05:54:01;1025.91;;;9.13;79.57
64230;BME280;50547;49.498;0.092;2023-02-01T05:56:30;1025.97;;;9.08;79.81
64230;BME280;50547;49.498;0.092;2023-02-01T05:58:59;1026.12;;;9.04;79.51
64230;BME280;50547;49.498;0.092;2023-02-01T06:01:28;1025.91;;;9.00;79.26
64230;BME280;50547;49.498;0.092;2023-02-01T06:03:57;1025.97;;;9.05;78.87
64230;BME280;50547;49.498;0.092;2023-02-01T06:06:23;1025.97;;;9.08;78.51
64230;BME280;50547;49.498;0.092;2023-02-01T06:08:52;1025.99;;;9.08;78.55
64230;BME280;50547;49.498;0.092;2023-02-01T06:11:21;1026.08;;;9.07;78.54
64230;BME280;50547;49.498;0.092;2023-02-01T06:13:50;1025.99;;;9.11;78.39
64230;BME280;50547;49.498;0.092;2023-02-01T06:16:23;1025.95;;;9.13;77.38
64230;BME280;50547;49.498;0.092;2023-02-01T06:18:52;1026.08;;;9.17;77.27
64230;BME280;50547;49.498;0.092;2023-02-01T06:21:19;1026.12;;;9.18;77.41
64230;BME280;50547;49.498;0.092;2023-02-01T06:23:47;1026.10;;;9.15;77.39
64230;BME280;50547;49.498;0.092;2023-02-01T06:26:14;1026.18;;;9.18;77.19
64230;BME280;50547;49.498;0.092;2023-02-01T06:28:43;1026.14;;;9.17;77.32
64230;BME280;50547;49.498;0.092;2023-02-01T06:31:10;1026.12;;;9.22;77.59
64230;BME280;50547;49.498;0.092;2023-02-01T06:33:39;1026.12;;;9.23;79.56
64230;BME280;50547;49.498;0.092;2023-02-01T06:36:10;1026.18;;;9.17;81.58
64230;BME280;50547;49.498;0.092;2023-02-01T06:38:39;1026.27;;;9.16;82.13
64230;BME280;50547;49.498;0.092;2023-02-01T06:41:09;1026.23;;;9.18;82.31
64230;BME280;50547;49.498;0.092;2023-02-01T06:43:38;1026.23;;;9.06;82.85
64230;BME280;50547;49.498;0.092;2023-02-01T06:46:11;1026.27;;;8.99;83.10
64230;BME280;50547;49.498;0.092;2023-02-01T06:48:41;1026.27;;;9.10;82.77
64230;BME280;50547;49.498;0.092;2023-02-01T06:53:49;1026.37;;;9.11;83.59
64230;BME280;50547;49.498;0.092;2023-02-01T06:56:19;1026.45;;;9.00;84.03
64230;BME280;50547;49.498;0.092;2023-02-01T06:58:48;1026.47;;;8.96;84.50
64230;BME280;50547;49.498;0.092;2023-02-01T07:01:18;1026.31;;;8.99;84.13
64230;BME280;50547;49.498;0.092;2023-02-01T07:03:48;1026.29;;;9.03;83.69
64230;BME280;50547;49.498;0.092;2023-02-01T07:06:18;1026.29;;;9.11;83.15
64230;BME280;50547;49.498;0.092;2023-02-01T07:08:47;1026.29;;;9.19;83.00
64230;BME280;50547;49.498;0.092;2023-02-01T07:11:19;1026.27;;;9.27;82.82
64230;BME280;50547;49.498;0.092;2023-02-01T07:13:48;1026.27;;;9.21;83.54
64230;BME280;50547;49.498;0.092;2023-02-01T07:16:18;1026.27;;;9.22;83.71
64230;BME280;50547;49.498;0.092;2023-02-01T07:18:49;1026.18;;;9.21;83.80
64230;BME280;50547;49.498;0.092;2023-02-01T07:21:19;1026.25;;;9.20;83.83
64230;BME280;50547;49.498;0.092;2023-02-01T07:23:48;1026.16;;;9.23;83.83
64230;BME280;50547;49.498;0.092;2023-02-01T07:26:17;1026.16;;;9.21;84.18
64230;BME280;50547;49.498;0.092;2023-02-01T07:28:47;1026.10;;;9.11;84.73
64230;BME280;50547;49.498;0.092;2023-02-01T07:31:18;1026.10;;;9.13;84.67
64230;BME280;50547;49.498;0.092;2023-02-01T07:33:48;1026.12;;;9.08;84.56
64230;BME280;50547;49.498;0.092;2023-02-01T07:36:18;1026.14;;;9.15;83.76
64230;BME280;50547;49.498;0.092;2023-02-01T07:38:47;1026.10;;;9.14;83.81
64230;BME280;50547;49.498;0.092;2023-02-01T07:41:16;1026.18;;;9.16;83.61
64230;BME280;50547;49.498;0.092;2023-02-01T07:43:45;1026.12;;;9.11;83.72
64230;BME280;50547;49.498;0.092;2023-02-01T07:46:14;1026.08;;;9.11;83.68
64230;BME280;50547;49.498;0.092;2023-02-01T07:48:43;1026.10;;;9.08;83.80
64230;BME280;50547;49.498;0.092;2023-02-01T07:51:15;1026.10;;;9.10;83.52
64230;BME280;50547;49.498;0.092;2023-02-01T07:53:45;1025.99;;;9.18;83.21
64230;BME280;50547;49.498;0.092;2023-02-01T07:56:16;1026.12;;;9.18;82.93
64230;BME280;50547;49.498;0.092;2023-02-01T07:58:47;1026.16;;;9.13;82.68
64230;BME280;50547;49.498;0.092;2023-02-01T08:01:17;1026.22;;;9.16;82.28
64230;BME280;50547;49.498;0.092;2023-02-01T08:03:48;1026.31;;;9.18;81.90
64230;BME280;50547;49.498;0.092;2023-02-01T08:06:18;1026.43;;;9.14;82.35
64230;BME280;50547;49.498;0.092;2023-02-01T08:08:49;1026.35;;;9.12;82.20
64230;BME280;50547;49.498;0.092;2023-02-01T08:11:20;1026.41;;;9.08;82.74
64230;BME280;50547;49.498;0.092;2023-02-01T08:13:50;1026.43;;;9.08;83.00
64230;BME280;50547;49.498;0.092;2023-02-01T08:16:21;1026.39;;;9.12;83.25
64230;BME280;50547;49.498;0.092;2023-02-01T08:18:51;1026.45;;;9.10;83.10
64230;BME280;50547;49.498;0.092;2023-02-01T08:21:22;1026.31;;;9.10;82.61
64230;BME280;50547;49.498;0.092;2023-02-01T08:23:52;1026.41;;;9.11;81.51
64230;BME280;50547;49.498;0.092;2023-02-01T08:26:23;1026.27;;;9.11;80.38
64230;BME280;50547;49.498;0.092;2023-02-01T08:28:54;1026.37;;;9.25;80.07
64230;BME280;50547;49.498;0.092;2023-02-01T08:31:28;1026.43;;;9.21;80.26
64230;BME280;50547;49.498;0.092;2023-02-01T08:33:59;1026.43;;;9.21;80.24
64230;BME280;50547;49.498;0.092;2023-02-01T08:36:30;1026.45;;;9.21;80.69
64230;BME280;50547;49.498;0.092;2023-02-01T08:38:59;1026.53;;;9.23;81.09
64230;BME280;50547;49.498;0.092;2023-02-01T08:41:30;1026.47;;;9.23;81.16
64230;BME280;50547;49.498;0.092;2023-02-01T08:43:59;1026.51;;;9.23;81.19
64230;BME280;50547;49.498;0.092;2023-02-01T08:46:28;1026.55;;;9.19;81.52
64230;BME280;50547;49.498;0.092;2023-02-01T08:48:57;1026.67;;;9.11;82.02
64230;BME280;50547;49.498;0.092;2023-02-01T08:51:26;1026.67;;;9.12;82.05
64230;BME280;50547;49.498;0.092;2023-02-01T08:53:55;1026.74;;;9.16;81.49
64230;BME280;50547;49.498;0.092;2023-02-01T08:56:24;1026.61;;;9.22;81.32
64230;BME280;50547;49.498;0.092;2023-02-01T08:58:53;1026.67;;;9.23;81.57
64230;BME280;50547;49.498;0.092;2023-02-01T09:01:22;1026.67;;;9.26;81.34
64230;BME280;50547;49.498;0.092;2023-02-01T09:03:51;1026.70;;;9.21;81.58
64230;BME280;50547;49.498;0.092;2023-02-01T09:06:20;1026.72;;;9.16;81.75
64230;BME280;50547;49.498;0.092;2023-02-01T09:08:49;1026.63;;;9.27;81.47
64230;BME280;50547;49.498;0.092;2023-02-01T09:11:18;1026.72;;;9.27;81.60
64230;BME280;50547;49.498;0.092;2023-02-01T09:13:48;1026.67;;;9.35;80.97
64230;BME280;50547;49.498;0.092;2023-02-01T09:16:17;1026.69;;;9.46;80.35
64230;BME280;50547;49.498;0.092;2023-02-01T09:18:46;1026.74;;;9.52;80.48
64230;BME280;50547;49.498;0.092;2023-02-01T09:21:15;1026.70;;;9.42;80.85
64230;BME280;50547;49.498;0.092;2023-02-01T09:23:44;1026.72;;;9.41;80.87
64230;BME280;50547;49.498;0.092;2023-02-01T09:26:13;1026.80;;;9.37;81.29
64230;BME280;50547;49.498;0.092;2023-02-01T09:28:43;1026.70;;;9.36;80.99
64230;BME280;50547;49.498;0.092;2023-02-01T09:31:12;1026.65;;;9.33;81.01
64230;BME280;50547;49.498;0.092;2023-02-01T09:33:41;1026.70;;;9.28;80.98
64230;BME280;50547;49.498;0.092;2023-02-01T09:36:10;1026.57;;;9.25;80.70
64230;BME280;50547;49.498;0.092;2023-02-01T09:38:39;1026.69;;;9.28;80.51
64230;BME280;50547;49.498;0.092;2023-02-01T09:41:24;1026.53;;;9.31;80.53
64230;BME280;50547;49.498;0.092;2023-02-01T09:43:59;1026.53;;;9.33;80.51
64230;BME280;50547;49.498;0.092;2023-02-01T09:46:35;1026.55;;;9.29;80.82
64230;BME280;50547;49.498;0.092;2023-02-01T09:49:10;1026.53;;;9.33;80.65
64230;BME280;50547;49.498;0.092;2023-02-01T09:51:44;1026.69;;;9.39;80.72
64230;BME280;50547;49.498;0.092;2023-02-01T09:54:16;1026.69;;;9.36;80.91
64230;BME280;50547;49.498;0.092;2023-02-01T09:56:48;1026.69;;;9.45;80.95
64230;BME280;50547;49.498;0.092;2023-02-01T09:59:26;1026.80;;;9.43;80.92
64230;BME280;50547;49.498;0.092;2023-02-01T10:01:59;1026.84;;;9.54;80.20
64230;BME280;50547;49.498;0.092;2023-02-01T10:04:29;1026.76;;;9.58;79.97
64230;BME280;50547;49.498;0.092;2023-02-01T10:07:08;1026.86;;;9.56;80.10
64230;BME280;50547;49.498;0.092;2023-02-01T10:09:53;1026.88;;;9.66;80.06
64230;BME280;50547;49.498;0.092;2023-02-01T10:12:40;1026.98;;;9.68;80.15
64230;BME280;50547;49.498;0.092;2023-02-01T10:15:24;1026.96;;;9.64;80.74
64230;BME280;50547;49.498;0.092;2023-02-01T10:18:06;1026.96;;;9.66;80.67
64230;BME280;50547;49.498;0.092;2023-02-01T10:20:51;1026.96;;;9.72;80.92
64230;BME280;50547;49.498;0.092;2023-02-01T10:23:42;1027.00;;;9.80;80.67
64230;BME280;50547;49.498;0.092;2023-02-01T10:26:22;1027.08;;;9.63;81.57
64230;BME280;50547;49.498;0.092;2023-02-01T10:28:54;1027.04;;;9.66;81.26
64230;BME280;50547;49.498;0.092;2023-02-01T10:31:27;1027.02;;;9.64;81.23
64230;BME280;50547;49.498;0.092;2023-02-01T10:33:59;1027.10;;;9.60;81.47
64230;BME280;50547;49.498;0.092;2023-02-01T10:36:31;1027.08;;;9.61;81.35
64230;BME280;50547;49.498;0.092;2023-02-01T10:39:02;1027.16;;;9.64;81.14
64230;BME280;50547;49.498;0.092;2023-02-01T10:41:33;1027.17;;;9.75;80.77
64230;BME280;50547;49.498;0.092;2023-02-01T10:44:07;1027.12;;;9.86;80.13
64230;BME280;50547;49.498;0.092;2023-02-01T10:46:39;1026.96;;;9.92;79.61
64230;BME280;50547;49.498;0.092;2023-02-01T10:49:13;1027.02;;;9.88;79.65
64230;BME280;50547;49.498;0.092;2023-02-01T10:51:47;1027.04;;;9.99;79.19
64230;BME280;50547;49.498;0.092;2023-02-01T10:54:21;1027.04;;;9.97;79.02
64230;BME280;50547;49.498;0.092;2023-02-01T10:56:50;1027.02;;;9.96;79.04
64230;BME280;50547;49.498;0.092;2023-02-01T10:59:24;1027.04;;;10.08;78.28
64230;BME280;50547;49.498;0.092;2023-02-01T11:01:59;1027.10;;;9.99;78.58
64230;BME280;50547;49.498;0.092;2023-02-01T11:04:32;1027.02;;;9.86;79.63
64230;BME280;50547;49.498;0.092;2023-02-01T11:07:07;1026.90;;;9.91;79.26
64230;BME280;50547;49.498;0.092;2023-02-01T11:09:49;1026.94;;;9.89;79.25
64230;BME280;50547;49.498;0.092;2023-02-01T11:12:29;1026.90;;;9.78;79.86
64230;BME280;50547;49.498;0.092;2023-02-01T11:15:03;1027.00;;;9.88;79.31
64230;BME280;50547;49.498;0.092;2023-02-01T11:17:35;1027.06;;;9.80;79.34
64230;BME280;50547;49.498;0.092;2023-02-01T11:20:14;1026.92;;;9.90;78.60
64230;BME280;50547;49.498;0.092;2023-02-01T11:22:47;1027.06;;;10.14;77.54
64230;BME280;50547;49.498;0.092;2023-02-01T11:25:17;1027.14;;;10.05;78.28
64230;BME280;50547;49.498;0.092;2023-02-01T11:27:48;1027.08;;;10.07;78.01
64230;BME280;50547;49.498;0.092;2023-02-01T11:30:24;1027.02;;;9.97;78.37
64230;BME280;50547;49.498;0.092;2023-02-01T11:32:55;1027.06;;;10.03;78.08
64230;BME280;50547;49.498;0.092;2023-02-01T11:35:24;1027.10;;;10.06;77.84
64230;BME280;50547;49.498;0.092;2023-02-01T11:37:55;1027.00;;;10.13;77.89
64230;BME280;50547;49.498;0.092;2023-02-01T11:40:29;1026.88;;;10.07;78.47
64230;BME280;50547;49.498;0.092;2023-02-01T11:43:14;1026.88;;;10.20;78.22
64230;BME280;50547;49.498;0.092;2023-02-01T11:45:54;1026.92;;;10.27;78.09
64230;BME280;50547;49.498;0.092;2023-02-01T11:48:25;1026.94;;;10.34;78.24
64230;BME280;50547;49.498;0.092;2023-02-01T11:51:12;1027.00;;;10.46;77.56
64230;BME280;50547;49.498;0.092;2023-02-01T11:54:01;1026.92;;;10.53;77.31
64230;BME280;50547;49.498;0.092;2023-02-01T11:56:36;1026.84;;;10.64;76.63
64230;BME280;50547;49.498;0.092;2023-02-01T11:59:16;1026.96;;;10.83;75.97
64230;BME280;50547;49.498;0.092;2023-02-01T12:02:02;1027.04;;;10.71;76.83
64230;BME280;50547;49.498;0.092;2023-02-01T12:04:58;1026.92;;;10.36;78.74
64230;BME280;50547;49.498;0.092;2023-02-01T12:07:41;1026.80;;;10.24;79.27
64230;BME280;50547;49.498;0.092;2023-02-01T12:10:24;1026.82;;;10.31;78.54
64230;BME280;50547;49.498;0.092;2023-02-01T12:13:04;1026.76;;;10.18;78.80
64230;BME280;50547;49.498;0.092;2023-02-01T12:15:56;1026.84;;;10.34;77.93
64230;BME280;50547;49.498;0.092;2023-02-01T12:19:16;1026.76;;;10.49;77.04
64230;BME280;50547;49.498;0.092;2023-02-01T12:21:53;1026.65;;;10.91;75.76
64230;BME280;50547;49.498;0.092;2023-02-01T12:24:58;1026.72;;;11.12;75.37
64230;BME280;50547;49.498;0.092;2023-02-01T12:28:17;1026.63;;;11.45;74.30
64230;BME280;50547;49.498;0.092;2023-02-01T12:31:31;1026.59;;;11.42;74.70
64230;BME280;50547;49.498;0.092;2023-02-01T12:34:19;1026.67;;;11.22;75.55
64230;BME280;50547;49.498;0.092;2023-02-01T12:36:59;1026.57;;;11.40;74.76
64230;BME280;50547;49.498;0.092;2023-02-01T12:39:39;1026.69;;;11.23;75.14
64230;BME280;50547;49.498;0.092;2023-02-01T12:42:20;1026.55;;;11.00;76.47
64230;BME280;50547;49.498;0.092;2023-02-01T12:44:54;1026.51;;;10.72;77.68
64230;BME280;50547;49.498;0.092;2023-02-01T12:47:28;1026.51;;;10.70;77.82
64230;BME280;50547;49.498;0.092;2023-02-01T12:50:02;1026.47;;;10.54;78.37
64230;BME280;50547;49.498;0.092;2023-02-01T12:52:37;1026.45;;;10.42;78.78
64230;BME280;50547;49.498;0.092;2023-02-01T12:55:16;1026.43;;;10.48;78.57
64230;BME280;50547;49.498;0.092;2023-02-01T12:57:50;1026.37;;;10.38;79.29
64230;BME280;50547;49.498;0.092;2023-02-01T13:00:27;1026.25;;;10.55;78.53
64230;BME280;50547;49.498;0.092;2023-02-01T13:03:03;1026.41;;;10.33;79.42
64230;BME280;50547;49.498;0.092;2023-02-01T13:05:49;1026.43;;;10.41;79.04
64230;BME280;50547;49.498;0.092;2023-02-01T13:08:23;1026.29;;;10.35;79.02
64230;BME280;50547;49.498;0.092;2023-02-01T13:10:58;1026.31;;;10.33;78.97
64230;BME280;50547;49.498;0.092;2023-02-01T13:13:44;1026.31;;;10.35;78.83
64230;BME280;50547;49.498;0.092;2023-02-01T13:16:17;1026.20;;;10.35;79.08
64230;BME280;50547;49.498;0.092;2023-02-01T13:18:50;1026.25;;;10.20;79.75
64230;BME280;50547;49.498;0.092;2023-02-01T13:21:25;1026.18;;;10.24;79.72
64230;BME280;50547;49.498;0.092;2023-02-01T13:23:56;1026.16;;;10.33;78.71
64230;BME280;50547;49.498;0.092;2023-02-01T13:26:26;1026.25;;;10.34;78.77
64230;BME280;50547;49.498;0.092;2023-02-01T13:28:58;1026.20;;;10.25;78.86
64230;BME280;50547;49.498;0.092;2023-02-01T13:31:44;1026.27;;;10.31;78.68
64230;BME280;50547;49.498;0.092;2023-02-01T13:35:06;1026.23;;;10.26;78.96
64230;BME280;50547;49.498;0.092;2023-02-01T13:37:56;1026.25;;;10.17;78.82
64230;BME280;50547;49.498;0.092;2023-02-01T13:40:37;1026.14;;;10.27;78.53
64230;BME280;50547;49.498;0.092;2023-02-01T13:43:13;1026.12;;;10.29;78.25
64230;BME280;50547;49.498;0.092;2023-02-01T13:45:46;1026.18;;;10.60;76.51
64230;BME280;50547;49.498;0.092;2023-02-01T13:48:23;1026.16;;;10.83;75.80
64230;BME280;50547;49.498;0.092;2023-02-01T13:50:56;1025.99;;;10.75;76.61
64230;BME280;50547;49.498;0.092;2023-02-01T13:53:29;1026.12;;;10.95;76.18
64230;BME280;50547;49.498;0.092;2023-02-01T13:56:00;1026.08;;;11.06;75.94
64230;BME280;50547;49.498;0.092;2023-02-01T13:58:33;1025.93;;;11.03;76.20
64230;BME280;50547;49.498;0.092;2023-02-01T14:01:35;1026.08;;;11.11;75.96